createdAt,value
2022-08-06T00:00:02.194Z,101062.94
2022-08-06T00:02:50.699Z,101061.22
2022-08-06T00:05:52.225Z,101052.59
2022-08-06T00:08:54.886Z,101070.34
2022-08-06T00:12:01.655Z,101068.69
2022-08-06T00:15:13.314Z,101078.16
2022-08-06T00:18:15.580Z,101073.22
2022-08-06T00:21:41.925Z,101073.94
2022-08-06T00:24:38.613Z,101073.63
2022-08-06T00:27:42.825Z,101074.25
2022-08-06T00:30:53.111Z,101076.91
2022-08-06T00:33:57.686Z,101078.31
2022-08-06T00:36:59.435Z,101088.84
2022-08-06T00:40:00.860Z,101091.19
2022-08-06T00:43:06.241Z,101084.78
2022-08-06T00:46:15.971Z,101087.47
2022-08-06T00:49:48.289Z,101096.56
2022-08-06T00:52:39.321Z,101101.34
2022-08-06T00:55:59.899Z,101100.19
2022-08-06T00:59:03.695Z,101101.03
2022-08-06T01:02:10.151Z,101100.56
2022-08-06T01:06:04.339Z,101103.66
2022-08-06T01:08:41.957Z,101110.16
2022-08-06T01:11:43.391Z,101108.84
2022-08-06T01:14:44.993Z,101103.88
2022-08-06T01:18:11.478Z,101109.06
2022-08-06T01:22:29.448Z,101105.34
2022-08-06T01:25:25.220Z,101113.41
2022-08-06T01:28:53.065Z,101111.41
2022-08-06T01:32:10.045Z,101100.53
2022-08-06T01:35:46.682Z,101099.19
2022-08-06T01:38:45.158Z,101105.06
2022-08-06T01:42:00.926Z,101103.69
2022-08-06T01:45:07.729Z,101103.88
2022-08-06T01:48:17.339Z,101100.44
2022-08-06T01:52:14.022Z,101111.03
2022-08-06T01:54:45.900Z,101102.81
2022-08-06T01:58:19.996Z,101104.03
2022-08-06T02:01:23.216Z,101095.63
2022-08-06T02:04:29.049Z,101102.28
2022-08-06T02:08:39.398Z,101108.41
2022-08-06T02:11:01.319Z,101114.91
2022-08-06T02:14:28.188Z,101115.28
2022-08-06T02:18:03.442Z,101115.66
2022-08-06T02:21:18.416Z,101117.97
2022-08-06T02:24:24.019Z,101109.16
2022-08-06T02:27:43.613Z,101123.09
2022-08-06T02:30:53.588Z,101123.25
2022-08-06T02:34:03.271Z,101117.53
2022-08-06T02:38:01.463Z,101125.28
2022-08-06T02:40:50.939Z,101120.72
2022-08-06T02:43:56.024Z,101119.63
2022-08-06T02:47:13.393Z,101129.13
2022-08-06T02:50:24.879Z,101125.53
2022-08-06T02:53:44.939Z,101125.75
2022-08-06T02:57:03.320Z,101124.81
2022-08-06T03:00:08.347Z,101126.34
2022-08-06T03:03:21.726Z,101127.56
2022-08-06T03:06:38.557Z,101135.41
2022-08-06T03:09:49.553Z,101141.72
2022-08-06T03:12:55.667Z,101145.50
2022-08-06T03:16:01.628Z,101130.84
2022-08-06T03:19:57.669Z,101138.25
2022-08-06T03:22:35.985Z,101137.75
2022-08-06T03:25:48.288Z,101147.38
2022-08-06T03:28:50.569Z,101149.88
2022-08-06T03:31:58.320Z,101146.00
2022-08-06T03:35:01.154Z,101139.19
2022-08-06T03:38:03.477Z,101154.00
2022-08-06T03:41:08.402Z,101150.09
2022-08-06T03:44:11.710Z,101155.34
2022-08-06T03:47:49.350Z,101160.47
2022-08-06T03:50:58.002Z,101161.97
2022-08-06T03:54:01.573Z,101164.38
2022-08-06T03:57:16.741Z,101164.56
2022-08-06T04:00:22.432Z,101162.97
2022-08-06T04:03:33.379Z,101178.03
2022-08-06T04:06:44.007Z,101174.31
2022-08-06T04:10:00.861Z,101171.19
2022-08-06T04:13:11.932Z,101178.94
2022-08-06T04:16:33.252Z,101181.88
2022-08-06T04:19:43.438Z,101196.31
2022-08-06T04:22:59.318Z,101191.41
2022-08-06T04:26:14.818Z,101187.81
2022-08-06T04:29:19.696Z,101197.09
2022-08-06T04:32:29.446Z,101190.50
2022-08-06T04:36:06.064Z,101203.16
2022-08-06T04:38:57.311Z,101193.44
2022-08-06T04:42:00.828Z,101200.81
2022-08-06T04:46:15.687Z,101201.66
2022-08-06T04:48:34.412Z,101207.31
2022-08-06T04:52:35.707Z,101209.75
2022-08-06T04:55:04.259Z,101218.22
2022-08-06T04:58:11.499Z,101217.56
2022-08-06T05:01:13.683Z,101217.34
2022-08-06T05:04:15.781Z,101217.06
2022-08-06T05:07:22.893Z,101221.09
2022-08-06T05:10:31.016Z,101219.47
2022-08-06T05:13:39.384Z,101221.03
2022-08-06T05:16:53.612Z,101222.91
2022-08-06T05:20:00.021Z,101221.03
2022-08-06T05:23:19.888Z,101230.53
2022-08-06T05:26:24.537Z,101231.09
2022-08-06T05:29:27.103Z,101231.94
2022-08-06T05:32:53.766Z,101249.19
2022-08-06T05:36:04.878Z,101240.41
2022-08-06T05:39:08.356Z,101243.19
2022-08-06T05:42:09.988Z,101249.19
2022-08-06T05:45:19.452Z,101255.47
2022-08-06T05:48:29.788Z,101256.41
2022-08-06T05:51:45.590Z,101274.63
2022-08-06T05:55:11.213Z,101259.56
2022-08-06T05:58:28.881Z,101267.81
2022-08-06T06:01:33.352Z,101273.22
2022-08-06T06:04:39.047Z,101272.84
2022-08-06T06:08:08.122Z,101271.00
2022-08-06T06:11:12.609Z,101265.06
2022-08-06T06:14:36.804Z,101274.63
2022-08-06T06:18:02.310Z,101286.13
2022-08-06T06:21:18.361Z,101281.13
2022-08-06T06:24:33.753Z,101287.25
2022-08-06T06:27:52.344Z,101291.72
2022-08-06T06:31:58.395Z,101291.66
2022-08-06T06:34:41.971Z,101287.97
2022-08-06T06:38:18.741Z,101294.69
2022-08-06T06:41:44.793Z,101305.22
2022-08-06T06:45:04.252Z,101292.44
2022-08-06T06:48:22.595Z,101300.34
2022-08-06T06:51:56.783Z,101298.47
2022-08-06T06:55:19.389Z,101302.84
2022-08-06T06:58:35.738Z,101297.00
2022-08-06T07:01:41.183Z,101300.72
2022-08-06T07:04:59.255Z,101302.25
2022-08-06T07:08:03.503Z,101308.59
2022-08-06T07:11:08.028Z,101302.59
2022-08-06T07:14:09.989Z,101303.47
2022-08-06T07:17:46.393Z,101297.25
2022-08-06T07:20:36.851Z,101300.22
2022-08-06T07:24:08.477Z,101302.44
2022-08-06T07:27:14.772Z,101301.03
2022-08-06T07:30:19.068Z,101297.75
2022-08-06T07:33:21.329Z,101300.38
2022-08-06T07:36:27.220Z,101301.94
2022-08-06T07:39:34.212Z,101304.38
2022-08-06T07:42:38.569Z,101309.53
2022-08-06T07:45:54.842Z,101300.50
2022-08-06T07:49:02.154Z,101304.38
2022-08-06T07:52:05.582Z,101301.50
2022-08-06T07:55:11.491Z,101300.88
2022-08-06T07:58:16.673Z,101295.91
2022-08-06T08:01:20.098Z,101298.41
2022-08-06T08:04:52.701Z,101305.78
2022-08-06T08:07:57.282Z,101301.78
2022-08-06T08:11:00.395Z,101298.66
2022-08-06T08:14:06.162Z,101301.53
2022-08-06T08:17:09.089Z,101306.75
2022-08-06T08:20:16.185Z,101299.97
2022-08-06T08:23:25.297Z,101301.84
2022-08-06T08:27:02.883Z,101295.72
2022-08-06T08:29:59.780Z,101299.84
2022-08-06T08:33:01.395Z,101297.28
2022-08-06T08:36:07.717Z,101301.56
2022-08-06T08:39:13.518Z,101295.69
2022-08-06T08:42:36.755Z,101302.53
2022-08-06T08:45:43.252Z,101295.66
2022-08-06T08:48:46.765Z,101292.88
2022-08-06T08:51:50.914Z,101286.47
2022-08-06T08:54:55.970Z,101283.34
2022-08-06T08:58:40.303Z,101286.66
2022-08-06T09:01:53.526Z,101286.47
2022-08-06T09:04:43.427Z,101284.81
2022-08-06T09:08:00.646Z,101283.44
2022-08-06T09:11:07.183Z,101287.75
2022-08-06T09:14:13.774Z,101288.38
2022-08-06T09:18:11.026Z,101291.69
2022-08-06T09:20:45.556Z,101292.91
2022-08-06T09:23:49.438Z,101287.09
2022-08-06T09:27:47.010Z,101288.81
2022-08-06T09:30:37.973Z,101289.19
2022-08-06T09:34:30.840Z,101289.25
2022-08-06T09:37:28.220Z,101289.28
2022-08-06T09:40:32.948Z,101279.97
2022-08-06T09:44:02.073Z,101282.06
2022-08-06T09:46:58.905Z,101281.38
2022-08-06T09:50:01.257Z,101283.16
2022-08-06T09:53:13.181Z,101282.53
2022-08-06T09:56:16.889Z,101276.94
2022-08-06T09:59:18.522Z,101271.03
2022-08-06T10:02:24.138Z,101269.50
2022-08-06T10:05:34.866Z,101273.09
2022-08-06T10:09:06.628Z,101267.59
2022-08-06T10:12:26.385Z,101262.19
2022-08-06T10:15:58.149Z,101276.94
2022-08-06T10:18:54.645Z,101276.59
2022-08-06T10:22:10.652Z,101276.06
2022-08-06T10:25:14.229Z,101265.88
2022-08-06T10:28:28.235Z,101266.47
2022-08-06T10:31:32.415Z,101272.22
2022-08-06T10:34:36.340Z,101273.69
2022-08-06T10:37:49.012Z,101272.00
2022-08-06T10:40:57.098Z,101261.50
2022-08-06T10:44:00.813Z,101263.91
2022-08-06T10:47:08.490Z,101256.31
2022-08-06T10:50:25.479Z,101251.78
2022-08-06T10:54:02.201Z,101253.88
2022-08-06T10:57:01.669Z,101251.41
2022-08-06T11:00:07.466Z,101249.84
2022-08-06T11:03:13.669Z,101255.59
2022-08-06T11:06:42.629Z,101250.81
2022-08-06T11:10:44.424Z,101248.66
2022-08-06T11:14:03.552Z,101240.63
2022-08-06T11:17:08.232Z,101240.63
2022-08-06T11:20:34.881Z,101232.34
2022-08-06T11:23:59.196Z,101241.97
2022-08-06T11:27:02.087Z,101238.97
2022-08-06T11:30:13.690Z,101231.72
2022-08-06T11:33:22.126Z,101230.63
2022-08-06T11:36:28.313Z,101232.53
2022-08-06T11:39:34.676Z,101222.69
2022-08-06T11:42:49.990Z,101224.00
2022-08-06T11:46:32.106Z,101229.97
2022-08-06T11:49:43.121Z,101230.81
2022-08-06T11:52:45.944Z,101214.22
2022-08-06T11:56:05.885Z,101212.00
2022-08-06T11:59:15.327Z,101208.53
2022-08-06T12:02:38.173Z,101212.44
2022-08-06T12:05:56.797Z,101195.47
2022-08-06T12:09:23.917Z,101197.28
2022-08-06T12:12:47.491Z,101188.13
2022-08-06T12:15:59.214Z,101188.47
2022-08-06T12:19:14.418Z,101185.03
2022-08-06T12:22:19.329Z,101176.97
2022-08-06T12:25:21.009Z,101175.97
2022-08-06T12:28:24.936Z,101163.16
2022-08-06T12:31:36.385Z,101164.78
2022-08-06T12:34:40.733Z,101156.34
2022-08-06T12:37:59.690Z,101152.66
2022-08-06T12:41:09.665Z,101152.69
2022-08-06T12:44:15.077Z,101152.38
2022-08-06T12:48:03.714Z,101142.94
2022-08-06T12:51:11.089Z,101145.53
2022-08-06T12:54:26.225Z,101137.03
2022-08-06T12:57:57.613Z,101140.91
2022-08-06T13:00:57.255Z,101143.63
2022-08-06T13:04:04.932Z,101129.63
2022-08-06T13:07:15.030Z,101126.41
2022-08-06T13:10:33.987Z,101132.22
2022-08-06T13:14:14.736Z,101131.38
2022-08-06T13:17:18.906Z,101116.09
2022-08-06T13:20:44.226Z,101119.06
2022-08-06T13:23:50.094Z,101121.41
2022-08-06T13:26:54.757Z,101117.56
2022-08-06T13:30:34.788Z,101105.13
2022-08-06T13:33:25.422Z,101112.25
2022-08-06T13:36:28.467Z,101112.06
2022-08-06T13:39:34.803Z,101112.06
2022-08-06T13:42:51.356Z,101118.56
2022-08-06T13:46:15.063Z,101095.28
2022-08-06T13:49:19.064Z,101089.94
2022-08-06T13:52:22.007Z,101086.09
2022-08-06T13:55:25.135Z,101089.00
2022-08-06T13:58:27.538Z,101082.13
2022-08-06T14:01:44.493Z,101080.22
2022-08-06T14:04:50.652Z,101081.53
2022-08-06T14:07:52.396Z,101084.06
2022-08-06T14:10:55.491Z,101084.59
2022-08-06T14:13:58.914Z,101073.53
2022-08-06T14:17:00.640Z,101072.13
2022-08-06T14:20:16.685Z,101063.88
2022-08-06T14:23:21.571Z,101076.66
2022-08-06T14:26:27.467Z,101074.19
2022-08-06T14:30:27.066Z,101069.88
2022-08-06T14:32:50.679Z,101075.53
2022-08-06T14:35:52.531Z,101077.00
2022-08-06T14:38:54.361Z,101062.56
2022-08-06T14:42:14.708Z,101058.53
2022-08-06T14:45:21.781Z,101059.47
2022-08-06T14:48:23.374Z,101056.06
2022-08-06T14:51:37.665Z,101041.41
2022-08-06T14:54:55.951Z,101045.41
2022-08-06T14:58:09.458Z,101040.69
2022-08-06T15:01:15.448Z,101030.91
2022-08-06T15:04:22.110Z,101041.31
2022-08-06T15:07:26.930Z,101042.38
2022-08-06T15:10:42.692Z,101031.72
2022-08-06T15:13:44.105Z,101030.16
2022-08-06T15:17:01.007Z,101041.84
2022-08-06T15:20:18.234Z,101026.72
2022-08-06T15:23:30.908Z,101025.22
2022-08-06T15:26:49.325Z,101028.69
2022-08-06T15:29:51.492Z,101023.69
2022-08-06T15:32:57.309Z,101026.44
2022-08-06T15:35:59.417Z,101025.25
2022-08-06T15:39:01.056Z,101023.47
2022-08-06T15:42:11.147Z,101015.81
2022-08-06T15:45:49.808Z,101014.81
2022-08-06T15:48:36.123Z,101019.06
2022-08-06T15:52:01.401Z,101017.94
2022-08-06T15:55:15.728Z,101001.66
2022-08-06T15:58:28.424Z,101005.72
2022-08-06T16:01:34.691Z,101001.91
2022-08-06T16:04:53.563Z,100998.09
2022-08-06T16:07:56.531Z,100996.06
2022-08-06T16:10:58.327Z,101012.84
2022-08-06T16:13:59.838Z,101003.38
2022-08-06T16:17:01.856Z,100999.06
2022-08-06T16:20:05.661Z,101001.63
2022-08-06T16:23:11.930Z,101000.66
2022-08-06T16:26:40.537Z,101010.44
2022-08-06T16:29:48.309Z,101007.91
2022-08-06T16:32:50.518Z,101012.97
2022-08-06T16:35:52.000Z,101005.94
2022-08-06T16:38:53.406Z,101007.84
2022-08-06T16:41:58.506Z,101001.78
2022-08-06T16:45:02.895Z,101005.88
2022-08-06T16:48:21.883Z,100997.50
2022-08-06T16:52:41.751Z,100995.19
2022-08-06T16:54:52.053Z,100991.03
2022-08-06T16:57:57.702Z,100989.09
2022-08-06T17:04:30.357Z,100993.91
2022-08-06T17:07:41.782Z,100993.22
2022-08-06T17:10:43.999Z,100997.94
2022-08-06T17:13:45.692Z,100990.84
2022-08-06T17:16:58.662Z,100985.44
2022-08-06T17:20:04.086Z,100996.88
2022-08-06T17:23:05.944Z,100991.31
2022-08-06T17:26:08.108Z,100989.47
2022-08-06T17:29:09.680Z,100983.59
2022-08-06T17:32:27.715Z,100992.03
2022-08-06T17:36:31.105Z,100984.06
2022-08-06T17:38:55.271Z,100985.75
2022-08-06T17:41:57.066Z,100995.72
2022-08-06T17:44:58.590Z,101001.44
2022-08-06T17:48:01.503Z,100996.56
2022-08-06T17:51:10.044Z,100993.75
2022-08-06T17:54:44.478Z,100998.00
2022-08-06T17:58:03.642Z,101007.53
2022-08-06T18:01:09.949Z,101005.97
2022-08-06T18:04:21.921Z,101008.50
2022-08-06T18:08:10.804Z,101007.91
2022-08-06T18:10:51.761Z,101008.75
2022-08-06T18:13:54.897Z,101018.09
2022-08-06T18:16:56.515Z,101013.78
2022-08-06T18:19:58.036Z,101020.25
2022-08-06T18:23:03.371Z,101020.16
2022-08-06T18:26:06.835Z,101024.41
2022-08-06T18:29:09.026Z,101028.22
2022-08-06T18:32:10.433Z,101023.09
2022-08-06T18:35:17.568Z,101029.50
2022-08-06T18:38:19.195Z,101035.97
2022-08-06T18:41:23.182Z,101033.13
2022-08-06T18:44:27.169Z,101035.03
2022-08-06T18:47:29.003Z,101034.09
2022-08-06T18:50:34.954Z,101042.22
2022-08-06T18:54:01.737Z,101040.31
2022-08-06T18:57:00.292Z,101044.59
2022-08-06T19:00:06.392Z,101052.47
2022-08-06T19:03:19.585Z,101053.09
2022-08-06T19:06:39.285Z,101058.50
2022-08-06T19:09:52.803Z,101072.22
2022-08-06T19:12:54.928Z,101068.56
2022-08-06T19:15:56.409Z,101069.78
2022-08-06T19:18:58.380Z,101079.13
2022-08-06T19:22:00.272Z,101077.88
2022-08-06T19:25:09.239Z,101079.22
2022-08-06T19:28:35.329Z,101078.13
2022-08-06T19:31:42.141Z,101083.75
2022-08-06T19:34:45.134Z,101078.22
2022-08-06T19:37:59.498Z,101085.06
2022-08-06T19:41:02.999Z,101085.19
2022-08-06T19:44:27.611Z,101098.66
2022-08-06T19:47:26.271Z,101087.75
2022-08-06T19:50:29.730Z,101090.34
2022-08-06T19:53:33.053Z,101089.59
2022-08-06T19:56:34.862Z,101092.53
2022-08-06T20:00:55.398Z,101091.84
2022-08-06T20:03:00.516Z,101082.28
2022-08-06T20:06:20.004Z,101089.91
2022-08-06T20:09:42.197Z,101099.66
2022-08-06T20:12:51.047Z,101091.00
2022-08-06T20:15:52.811Z,101094.50
2022-08-06T20:18:54.362Z,101092.88
2022-08-06T20:21:56.795Z,101104.47
2022-08-06T20:24:58.486Z,101102.06
2022-08-06T20:29:08.856Z,101098.84
2022-08-06T20:31:22.568Z,101098.69
2022-08-06T20:34:27.715Z,101094.03
2022-08-06T20:37:44.959Z,101083.13
2022-08-06T20:41:58.921Z,101086.78
2022-08-06T20:44:17.788Z,101093.06
2022-08-06T20:47:46.161Z,101086.66
2022-08-06T20:50:46.977Z,101090.56
2022-08-06T20:53:55.862Z,101085.41
2022-08-06T20:56:58.088Z,101078.75
2022-08-06T21:00:17.525Z,101082.25
2022-08-06T21:05:11.116Z,101075.75
2022-08-06T21:06:42.444Z,101075.97
2022-08-06T21:09:46.299Z,101075.13
2022-08-06T21:12:59.048Z,101075.97
2022-08-06T21:16:09.906Z,101083.69
2022-08-06T21:19:16.402Z,101079.28
2022-08-06T21:22:20.152Z,101075.13
2022-08-06T21:25:27.690Z,101073.38
2022-08-06T21:28:41.058Z,101071.03
2022-08-06T21:31:46.765Z,101073.72
2022-08-06T21:34:48.716Z,101078.03
2022-08-06T21:38:00.447Z,101068.72
2022-08-06T21:41:29.895Z,101076.53
2022-08-06T21:44:47.536Z,101082.09
2022-08-06T21:47:52.242Z,101072.97
2022-08-06T21:50:53.681Z,101073.16
2022-08-06T21:54:01.680Z,101075.50
2022-08-06T21:57:12.207Z,101070.69
2022-08-06T22:00:34.987Z,101076.16
2022-08-06T22:04:38.131Z,101081.28
2022-08-06T22:06:59.174Z,101083.13
2022-08-06T22:10:00.610Z,101073.06
2022-08-06T22:13:12.920Z,101078.44
2022-08-06T22:16:17.989Z,101086.94
2022-08-06T22:19:39.417Z,101078.78
2022-08-06T22:22:41.146Z,101080.09
2022-08-06T22:25:43.261Z,101086.97
2022-08-06T22:28:46.398Z,101080.09
2022-08-06T22:31:57.311Z,101082.78
2022-08-06T22:35:01.456Z,101077.97
2022-08-06T22:38:16.081Z,101087.19
2022-08-06T22:41:21.372Z,101076.44
2022-08-06T22:45:47.375Z,101073.44
2022-08-06T22:48:07.880Z,101076.97
2022-08-06T22:51:12.055Z,101071.28
2022-08-06T22:54:25.466Z,101077.06
2022-08-06T22:57:37.141Z,101068.81
2022-08-06T23:00:39.669Z,101073.84
2022-08-06T23:03:41.376Z,101073.41
2022-08-06T23:06:43.626Z,101073.41
2022-08-06T23:09:51.071Z,101068.25
2022-08-06T23:12:54.466Z,101067.50
2022-08-06T23:15:58.593Z,101065.66
2022-08-06T23:19:01.304Z,101069.63
2022-08-06T23:22:04.821Z,101065.47
2022-08-06T23:25:59.666Z,101059.69
2022-08-06T23:28:29.433Z,101062.44
2022-08-06T23:31:34.052Z,101057.28
2022-08-06T23:34:38.918Z,101053.28
2022-08-06T23:38:02.695Z,101058.75
2022-08-06T23:41:05.234Z,101060.44
2022-08-06T23:44:20.851Z,101061.19
2022-08-06T23:47:54.417Z,101062.16
2022-08-06T23:50:53.393Z,101061.44
2022-08-06T23:54:06.728Z,101061.78
2022-08-06T23:57:17.615Z,101064.38
